Time;durP1;ratioP1;P1;durP2;ratioP2;P2;SDS_P1;SDS_P2;PMS_P1;PMS_P2;Temp;Humidity;BMP_temperature;BMP_pressure;BME280_temperature;BME280_humidity;BME280_pressure;Samples;Min_cycle;Max_cycle;Signal;HPM_P1;HPM_P2
2024/02/01 00:00:37;;;;;;;37.38;24.70;;;6.60;99.90;;;;;;7374709;19;20056;-65
2024/02/01 00:03:03;;;;;;;37.15;25.92;;;6.60;99.90;;;;;;7376573;19;20018;-66
2024/02/01 00:05:30;;;;;;;37.10;25.33;;;6.60;99.90;;;;;;7373210;19;20021;-66
2024/02/01 00:07:57;;;;;;;39.85;25.63;;;6.70;99.90;;;;;;7375168;19;20015;-65
2024/02/01 00:10:23;;;;;;;39.83;26.77;;;6.70;99.90;;;;;;7372026;19;20074;-66
2024/02/01 00:12:49;;;;;;;39.03;24.95;;;6.70;99.90;;;;;;7372368;19;20665;-66
2024/02/01 00:15:16;;;;;;;35.13;23.98;;;6.70;99.90;;;;;;7374152;19;20060;-66
2024/02/01 00:17:42;;;;;;;39.72;25.40;;;6.80;99.90;;;;;;7371982;19;20547;-66
2024/02/01 00:20:08;;;;;;;34.97;25.10;;;6.90;99.90;;;;;;7374270;19;20022;-66
2024/02/01 00:22:35;;;;;;;48.72;27.88;;;6.90;99.90;;;;;;7373220;19;20019;-66
2024/02/01 00:25:02;;;;;;;41.72;26.88;;;6.90;99.90;;;;;;7372175;19;20018;-66
2024/02/01 00:27:28;;;;;;;38.08;25.10;;;6.90;99.90;;;;;;7371997;19;20159;-66
2024/02/01 00:29:54;;;;;;;41.72;24.40;;;6.90;99.90;;;;;;7370555;19;20042;-66
2024/02/01 00:32:21;;;;;;;41.05;24.65;;;7.00;99.90;;;;;;7374508;19;20022;-66
2024/02/01 00:34:47;;;;;;;36.58;25.00;;;7.00;99.90;;;;;;7374526;19;20023;-66
2024/02/01 00:37:13;;;;;;;38.55;23.42;;;7.10;99.90;;;;;;7371777;19;20851;-65
2024/02/01 00:39:42;;;;;;;44.33;25.35;;;7.00;99.90;;;;;;7373917;19;20018;-66
2024/02/01 00:42:09;;;;;;;34.88;24.20;;;7.10;99.90;;;;;;7371925;19;20026;-66
2024/02/01 00:44:35;;;;;;;33.42;23.52;;;7.20;99.90;;;;;;7376525;19;20014;-66
2024/02/01 00:47:01;;;;;;;32.00;23.55;;;7.10;99.90;;;;;;7376229;19;20007;-66
2024/02/01 00:49:27;;;;;;;33.45;21.92;;;7.20;99.90;;;;;;7372584;19;20714;-66
2024/02/01 00:51:53;;;;;;;34.70;22.25;;;7.20;99.90;;;;;;7375000;19;20022;-66
2024/02/01 00:54:20;;;;;;;38.10;22.88;;;7.20;99.90;;;;;;7374574;19;20010;-66
2024/02/01 00:56:46;;;;;;;35.83;23.50;;;7.30;99.90;;;;;;7375293;19;20017;-66
2024/02/01 00:59:12;;;;;;;36.53;23.85;;;7.30;99.90;;;;;;7376164;19;20480;-66
2024/02/01 01:01:39;;;;;;;37.45;23.23;;;7.20;99.90;;;;;;7371079;19;20014;-66
2024/02/01 01:04:06;;;;;;;37.70;22.40;;;7.30;99.90;;;;;;7375218;19;20031;-66
2024/02/01 01:06:33;;;;;;;35.38;22.85;;;7.30;99.90;;;;;;7368449;19;20022;-66
2024/02/01 01:09:00;;;;;;;32.95;22.63;;;7.30;99.90;;;;;;7374935;19;20051;-66
2024/02/01 01:11:27;;;;;;;35.13;21.05;;;7.40;99.90;;;;;;7364095;19;20053;-66
2024/02/01 01:13:54;;;;;;;28.73;18.58;;;7.40;99.90;;;;;;7366429;19;20029;-66
2024/02/01 01:16:21;;;;;;;28.42;17.55;;;7.50;99.90;;;;;;7369998;19;20796;-66
2024/02/01 01:18:49;;;;;;;27.98;17.35;;;7.60;99.90;;;;;;7371174;19;20097;-66
2024/02/01 01:21:15;;;;;;;30.90;17.58;;;7.60;99.90;;;;;;7373271;19;20089;-66
2024/02/01 01:23:43;;;;;;;28.98;18.13;;;7.70;99.90;;;;;;7371622;19;20419;-66
2024/02/01 01:26:10;;;;;;;31.80;19.25;;;7.80;99.90;;;;;;7370933;19;20431;-66
2024/02/01 01:28:37;;;;;;;30.77;18.73;;;7.90;99.90;;;;;;7372460;19;20039;-66
2024/02/01 01:31:04;;;;;;;32.33;19.20;;;7.90;99.90;;;;;;7369721;19;20023;-66
2024/02/01 01:33:31;;;;;;;26.88;17.55;;;7.90;99.90;;;;;;7366288;19;20052;-66
2024/02/01 01:35:58;;;;;;;28.58;15.85;;;7.90;99.90;;;;;;7368908;19;20086;-66
2024/02/01 01:38:25;;;;;;;27.25;14.93;;;7.90;99.90;;;;;;7367620;19;20026;-66
2024/02/01 01:40:51;;;;;;;22.08;13.60;;;7.90;99.90;;;;;;7369056;19;20392;-66
2024/02/01 01:43:17;;;;;;;31.40;15.13;;;8.00;99.90;;;;;;7365211;19;20019;-66
2024/02/01 01:45:44;;;;;;;27.83;12.98;;;8.00;99.90;;;;;;7367780;19;20091;-66
2024/02/01 01:48:10;;;;;;;29.17;12.70;;;8.00;99.90;;;;;;7368440;19;20050;-66
2024/02/01 01:50:37;;;;;;;36.60;12.80;;;8.00;99.90;;;;;;7369483;19;20110;-65
2024/02/01 01:53:05;;;;;;;25.98;11.13;;;8.00;99.90;;;;;;7371309;19;20025;-65
2024/02/01 01:55:31;;;;;;;31.30;11.45;;;8.00;99.90;;;;;;7365349;19;20119;-65
2024/02/01 01:57:58;;;;;;;28.20;9.02;;;8.00;99.90;;;;;;7371662;19;20014;-66
2024/02/01 02:00:24;;;;;;;32.33;8.70;;;7.90;99.90;;;;;;7369786;19;20026;-66
2024/02/01 02:02:51;;;;;;;31.08;7.55;;;7.80;99.90;;;;;;7365128;19;20068;-67
2024/02/01 02:05:20;;;;;;;26.52;7.18;;;7.80;99.90;;;;;;7370002;19;20108;-66
2024/02/01 02:07:46;;;;;;;26.30;5.78;;;7.70;99.90;;;;;;7370437;19;20018;-66
2024/02/01 02:10:14;;;;;;;25.17;6.78;;;7.70;99.90;;;;;;7368040;19;20014;-66
2024/02/01 02:12:42;;;;;;;21.00;4.90;;;7.60;99.90;;;;;;7365499;19;20086;-66
2024/02/01 02:15:10;;;;;;;26.42;5.53;;;7.60;99.90;;;;;;7372063;19;20022;-65
2024/02/01 02:17:38;;;;;;;23.92;5.50;;;7.50;99.90;;;;;;7365565;19;20043;-65
2024/02/01 02:20:15;;;;;;;28.85;5.55;;;7.40;99.90;;;;;;7372237;19;20022;-65
2024/02/01 02:22:44;;;;;;;24.70;4.93;;;7.40;99.90;;;;;;7363932;19;20714;-65
2024/02/01 02:25:10;;;;;;;20.10;4.63;;;7.40;99.90;;;;;;7370796;19;20922;-65
2024/02/01 02:27:36;;;;;;;20.90;5.07;;;7.30;99.90;;;;;;7367406;19;20479;-65
2024/02/01 02:30:02;;;;;;;23.42;4.93;;;7.30;99.90;;;;;;7366875;19;21091;-65
2024/02/01 02:32:29;;;;;;;22.60;6.15;;;7.30;99.90;;;;;;7359393;19;20646;-65
2024/02/01 02:34:55;;;;;;;28.23;5.30;;;7.20;99.90;;;;;;7370666;19;20506;-65
2024/02/01 02:37:25;;;;;;;29.30;5.07;;;7.00;99.90;;;;;;7370114;19;20010;-65
2024/02/01 02:39:52;;;;;;;28.65;4.50;;;7.00;99.90;;;;;;7367859;19;20078;-65
2024/02/01 02:42:19;;;;;;;32.25;6.43;;;6.90;99.90;;;;;;7369207;19;20108;-66
2024/02/01 02:44:46;;;;;;;20.48;5.05;;;6.90;99.90;;;;;;7371740;19;20778;-66
2024/02/01 02:47:13;;;;;;;25.17;4.28;;;6.80;99.90;;;;;;7370327;19;20557;-66
2024/02/01 02:49:40;;;;;;;23.48;4.40;;;6.70;99.90;;;;;;7366758;19;20422;-66
2024/02/01 02:52:07;;;;;;;24.20;4.68;;;6.70;99.90;;;;;;7374499;19;20010;-66
2024/02/01 02:54:34;;;;;;;21.20;4.82;;;6.70;99.90;;;;;;7373712;19;20092;-66
2024/02/01 02:57:01;;;;;;;27.45;4.13;;;6.60;99.90;;;;;;7374661;19;20018;-66
2024/02/01 02:59:31;;;;;;;26.13;4.28;;;6.60;99.90;;;;;;7372513;19;20014;-66
2024/02/01 03:01:58;;;;;;;18.77;3.78;;;6.60;99.90;;;;;;7376273;19;20017;-66
2024/02/01 03:04:25;;;;;;;22.85;4.80;;;6.50;99.90;;;;;;7374149;19;20057;-66
2024/02/01 03:06:51;;;;;;;32.90;6.28;;;6.40;99.90;;;;;;7377489;19;20010;-67
2024/02/01 03:09:18;;;;;;;28.10;5.40;;;6.30;99.90;;;;;;7376449;19;20027;-66
2024/02/01 03:11:45;;;;;;;28.23;5.03;;;6.30;99.90;;;;;;7374277;19;20471;-66
2024/02/01 03:14:13;;;;;;;27.83;4.90;;;6.20;99.90;;;;;;7374418;19;20015;-66
2024/02/01 03:16:40;;;;;;;23.85;4.38;;;6.10;99.90;;;;;;7375107;19;20081;-66
2024/02/01 03:19:11;;;;;;;25.02;3.97;;;6.10;99.90;;;;;;7373808;19;20102;-67
2024/02/01 03:21:37;;;;;;;26.52;4.15;;;6.00;99.90;;;;;;7370738;19;20019;-67
2024/02/01 03:24:04;;;;;;;24.30;4.45;;;5.90;99.90;;;;;;7376350;19;20018;-66
2024/02/01 03:26:34;;;;;;;25.67;4.70;;;5.80;99.90;;;;;;7378196;19;20018;-66
2024/02/01 03:29:01;;;;;;;28.90;5.10;;;5.80;99.90;;;;;;7375675;19;20014;-66
2024/02/01 03:31:33;;;;;;;31.65;5.07;;;5.70;99.90;;;;;;7374968;19;20015;-66
2024/02/01 03:34:10;;;;;;;27.33;5.70;;;5.70;99.90;;;;;;7375378;19;20029;-67
2024/02/01 03:36:37;;;;;;;22.13;4.88;;;5.60;99.90;;;;;;7374533;19;20023;-67
2024/02/01 03:39:22;;;;;;;28.73;4.63;;;5.50;99.90;;;;;;7374632;19;20037;-67
2024/02/01 03:41:52;;;;;;;24.02;5.13;;;5.50;99.90;;;;;;7376592;19;20101;-66
2024/02/01 03:44:21;;;;;;;28.33;4.80;;;5.50;99.90;;;;;;7369199;19;20022;-66
2024/02/01 03:46:48;;;;;;;36.42;6.00;;;5.40;99.90;;;;;;7375356;19;20490;-67
2024/02/01 03:49:14;;;;;;;25.48;4.95;;;5.40;99.90;;;;;;7376568;19;20116;-66
2024/02/01 03:51:41;;;;;;;20.88;5.50;;;5.40;99.90;;;;;;7373339;19;20658;-66
2024/02/01 03:54:08;;;;;;;26.70;4.95;;;5.40;99.90;;;;;;7375838;19;20018;-66
2024/02/01 03:56:35;;;;;;;26.80;4.50;;;5.30;99.90;;;;;;7368766;19;20039;-66
2024/02/01 03:59:09;;;;;;;28.30;4.75;;;5.30;99.90;;;;;;7376426;19;20433;-67
2024/02/01 04:01:36;;;;;;;35.65;5.18;;;5.20;99.90;;;;;;7371903;19;20516;-67
2024/02/01 04:04:06;;;;;;;33.22;4.43;;;5.20;99.90;;;;;;7370411;19;20022;-67
2024/02/01 04:06:36;;;;;;;24.95;4.65;;;5.10;99.90;;;;;;7375468;19;20018;-67
2024/02/01 04:09:04;;;;;;;30.00;5.43;;;5.00;99.90;;;;;;7373378;19;20046;-67
2024/02/01 04:11:30;;;;;;;31.50;4.72;;;5.00;99.90;;;;;;7372567;19;20082;-67
2024/02/01 04:13:57;;;;;;;30.13;5.53;;;4.90;99.90;;;;;;7371406;19;20047;-67
2024/02/01 04:16:23;;;;;;;35.05;5.55;;;5.00;99.90;;;;;;7373617;19;20018;-67
2024/02/01 04:18:51;;;;;;;30.50;5.78;;;4.90;99.90;;;;;;7374179;19;20840;-67
2024/02/01 04:21:18;;;;;;;25.83;4.68;;;4.90;99.90;;;;;;7373692;19;20021;-67
2024/02/01 04:23:45;;;;;;;30.23;6.45;;;4.90;99.90;;;;;;7372647;19;20023;-66
2024/02/01 04:26:15;;;;;;;32.20;5.47;;;4.90;99.90;;;;;;7371813;19;20784;-66
2024/02/01 04:28:43;;;;;;;34.53;5.10;;;4.80;99.90;;;;;;7372948;19;20030;-67
2024/02/01 04:31:09;;;;;;;25.70;5.68;;;4.70;99.90;;;;;;7375505;19;20018;-67
2024/02/01 04:33:40;;;;;;;29.50;6.13;;;4.70;99.90;;;;;;7367445;19;20571;-67
2024/02/01 04:36:07;;;;;;;29.90;5.10;;;4.70;99.90;;;;;;7371963;19;20019;-67
2024/02/01 04:38:34;;;;;;;25.42;4.75;;;4.70;99.90;;;;;;7369766;19;20047;-67
2024/02/01 04:41:00;;;;;;;33.95;5.35;;;4.60;99.90;;;;;;7369910;19;20022;-68
2024/02/01 04:43:26;;;;;;;29.85;5.45;;;4.60;99.90;;;;;;7376271;19;20014;-68
2024/02/01 04:45:52;;;;;;;32.38;5.78;;;4.60;99.90;;;;;;7373689;19;20407;-68
2024/02/01 04:48:19;;;;;;;34.22;6.68;;;4.60;99.90;;;;;;7374700;19;20775;-68
2024/02/01 04:50:45;;;;;;;25.77;4.32;;;4.50;99.90;;;;;;7374109;19;20018;-67
2024/02/01 04:53:11;;;;;;;40.30;6.20;;;4.50;99.90;;;;;;7373794;19;20022;-67
2024/02/01 04:55:37;;;;;;;29.80;6.00;;;4.40;99.90;;;;;;7369806;19;20031;-67
2024/02/01 04:58:04;;;;;;;30.60;5.22;;;4.40;99.90;;;;;;7367510;19;20051;-68
2024/02/01 05:00:31;;;;;;;35.75;5.47;;;4.40;99.90;;;;;;7367307;19;20879;-68
2024/02/01 05:02:57;;;;;;;31.45;5.47;;;4.40;99.90;;;;;;7366049;19;20023;-67
2024/02/01 05:05:25;;;;;;;35.08;6.50;;;4.30;99.90;;;;;;7368693;19;20014;-68
2024/02/01 05:07:52;;;;;;;30.42;5.63;;;4.40;99.90;;;;;;7370951;19;20359;-67
2024/02/01 05:10:18;;;;;;;35.60;5.47;;;4.30;99.90;;;;;;7368487;19;20039;-67
2024/02/01 05:12:45;;;;;;;31.83;4.55;;;4.20;99.90;;;;;;7367176;19;20029;-67
2024/02/01 05:15:12;;;;;;;33.08;5.45;;;4.20;99.90;;;;;;7367970;19;20019;-67
2024/02/01 05:17:39;;;;;;;35.40;5.57;;;4.20;99.90;;;;;;7368371;19;20690;-67
2024/02/01 05:20:08;;;;;;;26.20;5.53;;;4.10;99.90;;;;;;7371115;19;20086;-67
2024/02/01 05:22:36;;;;;;;34.80;5.90;;;4.00;99.90;;;;;;7369401;19;20467;-67
2024/02/01 05:25:14;;;;;;;30.80;6.10;;;4.10;99.90;;;;;;7371105;19;20014;-67
2024/02/01 05:27:50;;;;;;;33.85;5.38;;;4.00;99.90;;;;;;7370830;19;20445;-68
2024/02/01 05:30:22;;;;;;;26.65;4.78;;;4.00;99.90;;;;;;7372924;19;20582;-68
2024/02/01 05:32:53;;;;;;;31.85;6.30;;;3.90;99.90;;;;;;7371035;19;20529;-68
2024/02/01 05:35:28;;;;;;;29.27;4.82;;;3.90;99.90;;;;;;7370519;19;20041;-69
2024/02/01 05:37:57;;;;;;;35.83;6.00;;;3.90;99.90;;;;;;7369496;19;20048;-68
2024/02/01 05:40:24;;;;;;;32.90;5.28;;;3.80;99.90;;;;;;7370534;19;20052;-68
2024/02/01 05:42:51;;;;;;;33.90;5.63;;;3.80;99.90;;;;;;7372074;19;20107;-68
2024/02/01 05:45:19;;;;;;;30.35;6.40;;;3.70;99.90;;;;;;7370645;19;20094;-68
2024/02/01 05:47:46;;;;;;;26.27;5.55;;;3.70;99.90;;;;;;7371176;19;20026;-68
2024/02/01 05:50:16;;;;;;;31.85;5.85;;;3.80;99.90;;;;;;7370573;19;20515;-68
2024/02/01 05:52:43;;;;;;;27.95;5.78;;;3.70;99.90;;;;;;7372559;19;20495;-68
2024/02/01 05:55:13;;;;;;;35.58;5.70;;;3.70;99.90;;;;;;7372722;19;20427;-69
2024/02/01 05:57:40;;;;;;;39.75;5.57;;;3.80;99.90;;;;;;7369291;19;20497;-68
2024/02/01 06:00:10;;;;;;;36.38;6.45;;;3.70;99.90;;;;;;7373042;19;20015;-69
2024/02/01 06:02:37;;;;;;;31.38;5.45;;;3.70;99.90;;;;;;7368853;19;20018;-68
2024/02/01 06:05:04;;;;;;;31.13;5.10;;;3.60;99.90;;;;;;7369783;19;20018;-68
2024/02/01 06:07:30;;;;;;;37.70;6.68;;;3.60;99.90;;;;;;7368370;19;20495;-68
2024/02/01 06:09:57;;;;;;;38.67;5.82;;;3.60;99.90;;;;;;7372432;19;20610;-68
2024/02/01 06:12:23;;;;;;;37.65;6.78;;;3.60;99.90;;;;;;7365889;19;20018;-69
2024/02/01 06:14:49;;;;;;;29.70;5.00;;;3.60;99.90;;;;;;7376351;19;20743;-69
2024/02/01 06:17:15;;;;;;;28.30;5.10;;;3.50;99.90;;;;;;7370487;19;20595;-69
2024/02/01 06:19:42;;;;;;;25.77;5.80;;;3.50;99.90;;;;;;7373511;19;20404;-66
2024/02/01 06:22:08;;;;;;;32.17;5.15;;;3.40;99.90;;;;;;7369008;19;20480;-68
2024/02/01 06:24:35;;;;;;;36.08;5.45;;;3.30;99.90;;;;;;7368303;19;20029;-69
2024/02/01 06:27:01;;;;;;;29.25;5.13;;;3.20;99.90;;;;;;7372412;19;20781;-69
2024/02/01 06:29:28;;;;;;;28.00;4.70;;;3.20;99.90;;;;;;7378837;19;20022;-69
2024/02/01 06:31:54;;;;;;;27.00;4.80;;;3.10;99.90;;;;;;7379474;19;20014;-69
2024/02/01 06:34:38;;;;;;;36.97;5.90;;;3.10;99.90;;;;;;7376379;19;20484;-68
2024/02/01 06:37:07;;;;;;;40.72;5.38;;;3.10;99.90;;;;;;7377565;19;20019;-69
2024/02/01 06:42:24;;;;;;;30.70;6.53;;;2.90;99.90;;;;;;7379323;19;20010;-68
2024/02/01 06:45:08;;;;;;;23.33;5.13;;;3.00;99.90;;;;;;7375478;19;20039;-69
2024/02/01 06:47:39;;;;;;;30.95;6.22;;;3.00;99.90;;;;;;7375037;19;20090;-69
2024/02/01 06:50:24;;;;;;;31.88;5.82;;;2.90;99.90;;;;;;7378089;19;20020;-69
2024/02/01 06:52:56;;;;;;;34.30;5.07;;;2.90;99.90;;;;;;7377335;19;20097;-69
2024/02/01 06:55:36;;;;;;;25.50;5.05;;;3.00;99.90;;;;;;7377053;19;20082;-68
2024/02/01 06:58:05;;;;;;;35.53;5.28;;;2.90;99.90;;;;;;7375753;19;20035;-69
2024/02/01 07:00:40;;;;;;;45.13;6.28;;;2.90;99.90;;;;;;7377837;19;20867;-69
2024/02/01 07:08:26;;;;;;;28.92;5.60;;;2.90;99.90;;;;;;7376781;19;20014;-69
2024/02/01 07:11:03;;;;;;;35.10;5.60;;;2.80;99.90;;;;;;7375671;19;20021;-69
2024/02/01 07:14:15;;;;;;;36.95;5.25;;;2.80;99.90;;;;;;7374266;19;20031;-69
2024/02/01 07:17:26;;;;;;;35.63;5.50;;;2.80;99.90;;;;;;7374141;19;20010;-69
2024/02/01 07:19:23;;;;;;;27.33;5.95;;;2.70;99.90;;;;;;7373368;19;20035;-68
2024/02/01 07:22:00;;;;;;;28.08;5.03;;;2.70;99.90;;;;;;7375918;19;20026;-68
2024/02/01 07:24:38;;;;;;;32.53;5.30;;;2.70;99.90;;;;;;7379538;19;20102;-68
2024/02/01 07:57:36;;;;;;;24.80;4.78;;;3.00;99.90;;;;;;7374657;19;20014;-68
2024/02/01 08:00:06;;;;;;;37.95;7.50;;;3.00;99.90;;;;;;7377262;19;20032;-69
2024/02/01 08:02:50;;;;;;;34.50;6.30;;;3.10;99.90;;;;;;7370572;19;20026;-69
2024/02/01 08:08:05;;;;;;;28.55;5.97;;;3.20;99.90;;;;;;7374394;19;20049;-69
2024/02/01 08:10:31;;;;;;;31.40;6.22;;;3.30;99.90;;;;;;7372594;19;20832;-66
2024/02/01 08:13:07;;;;;;;39.13;6.22;;;3.40;99.90;;;;;;7377662;19;20010;-66
2024/02/01 08:15:37;;;;;;;30.33;4.85;;;3.50;99.90;;;;;;7368248;19;20115;-69
2024/02/01 08:18:08;;;;;;;33.88;5.32;;;3.60;99.90;;;;;;7373200;19;20591;-66
2024/02/01 08:20:39;;;;;;;38.42;6.10;;;3.60;99.90;;;;;;7371900;19;20051;-66
2024/02/01 08:23:06;;;;;;;30.55;5.53;;;3.70;99.90;;;;;;7377969;19;20027;-69
2024/02/01 08:25:33;;;;;;;28.00;5.68;;;3.80;99.90;;;;;;7373369;19;20019;-66
2024/02/01 08:28:00;;;;;;;40.92;5.88;;;3.90;99.90;;;;;;7377304;19;20030;-67
2024/02/01 08:30:31;;;;;;;26.77;5.43;;;4.00;99.90;;;;;;7373181;19;20022;-66
2024/02/01 08:33:04;;;;;;;39.60;6.03;;;4.10;99.90;;;;;;7374810;19;20488;-66
2024/02/01 08:35:35;;;;;;;40.22;5.95;;;4.20;99.90;;;;;;7371709;19;20129;-67
2024/02/01 08:38:05;;;;;;;36.05;5.90;;;4.30;99.90;;;;;;7372813;19;20014;-70
2024/02/01 08:40:32;;;;;;;37.95;5.75;;;4.40;99.90;;;;;;7373918;19;20031;-67
2024/02/01 08:42:59;;;;;;;32.50;5.30;;;4.40;99.90;;;;;;7374332;19;20030;-67
2024/02/01 08:45:30;;;;;;;28.58;6.00;;;4.60;99.90;;;;;;7371027;19;20787;-69
2024/02/01 08:48:02;;;;;;;26.52;4.95;;;4.80;99.90;;;;;;7376427;19;20100;-66
2024/02/01 08:50:31;;;;;;;29.38;4.82;;;5.00;99.90;;;;;;7369031;19;20094;-67
2024/02/01 08:52:59;;;;;;;28.92;5.40;;;5.30;99.90;;;;;;7374211;19;20548;-67
2024/02/01 08:55:26;;;;;;;29.23;5.45;;;5.80;99.90;;;;;;7373164;19;20101;-67
2024/02/01 08:57:54;;;;;;;31.42;5.97;;;6.20;99.90;;;;;;7373646;19;20022;-67
2024/02/01 09:00:32;;;;;;;23.17;4.93;;;6.80;99.90;;;;;;7373386;19;20014;-68
2024/02/01 09:03:17;;;;;;;35.20;5.95;;;7.10;99.90;;;;;;7372508;19;20014;-68
2024/02/01 09:05:47;;;;;;;23.83;5.53;;;7.50;99.90;;;;;;7371708;19;20034;-68
2024/02/01 09:08:34;;;;;;;23.98;6.03;;;7.60;99.90;;;;;;7374102;19;20461;-68
2024/02/01 09:11:11;;;;;;;20.88;4.03;;;7.70;99.90;;;;;;7370566;19;20024;-68
2024/02/01 09:13:43;;;;;;;24.67;4.50;;;8.00;99.90;;;;;;7373055;19;20045;-68
2024/02/01 09:16:18;;;;;;;25.55;4.68;;;8.40;99.90;;;;;;7374646;19;20039;-68
2024/02/01 09:18:45;;;;;;;23.30;5.88;;;8.60;99.90;;;;;;7368068;19;20018;-68
2024/02/01 09:21:12;;;;;;;27.17;5.40;;;8.60;99.90;;;;;;7369016;19;20369;-69
2024/02/01 09:23:39;;;;;;;27.90;5.63;;;9.00;99.90;;;;;;7370739;19;20018;-68
2024/02/01 09:26:08;;;;;;;27.35;5.80;;;9.60;99.90;;;;;;7370154;19;20586;-68
2024/02/01 09:28:35;;;;;;;23.17;5.40;;;9.90;99.90;;;;;;7369921;19;20476;-68
2024/02/01 09:31:18;;;;;;;24.77;5.45;;;10.20;99.90;;;;;;7370681;19;20014;-68
2024/02/01 09:33:45;;;;;;;29.77;5.93;;;10.40;99.90;;;;;;7371302;19;20028;-68
2024/02/01 09:36:12;;;;;;;28.67;5.47;;;10.50;99.90;;;;;;7371455;19;20018;-67
2024/02/01 09:38:38;;;;;;;25.10;6.95;;;10.70;99.90;;;;;;7370843;19;20946;-67
2024/02/01 09:41:05;;;;;;;25.90;6.15;;;10.60;99.90;;;;;;7374029;19;20027;-67
2024/02/01 09:43:38;;;;;;;29.17;5.70;;;10.20;99.90;;;;;;7370237;19;20022;-67
2024/02/01 09:46:08;;;;;;;22.30;5.32;;;10.30;99.90;;;;;;7373871;19;20027;-68
2024/02/01 09:48:39;;;;;;;27.15;6.03;;;10.60;99.90;;;;;;7370769;19;20500;-68
2024/02/01 09:51:06;;;;;;;25.20;5.70;;;10.40;99.90;;;;;;7373464;19;20022;-68
2024/02/01 09:53:36;;;;;;;24.48;5.45;;;10.50;99.90;;;;;;7370507;19;20026;-68
2024/02/01 09:56:04;;;;;;;32.30;6.70;;;10.80;99.90;;;;;;7372223;19;20383;-68
2024/02/01 09:58:32;;;;;;;29.70;6.57;;;10.60;99.90;;;;;;7369668;19;20010;-68
2024/02/01 10:00:59;;;;;;;30.95;6.30;;;10.70;99.90;;;;;;7371477;19;20487;-68
2024/02/01 10:03:27;;;;;;;26.05;5.70;;;11.10;99.90;;;;;;7372825;19;20029;-69
2024/02/01 10:05:56;;;;;;;29.83;5.75;;;11.50;99.90;;;;;;7374149;19;20039;-68
2024/02/01 10:08:26;;;;;;;26.38;6.13;;;11.40;99.90;;;;;;7372726;19;20486;-67
2024/02/01 10:10:53;;;;;;;32.47;7.05;;;12.00;99.90;;;;;;7373501;19;20078;-67
2024/02/01 10:13:30;;;;;;;27.33;6.50;;;11.80;99.90;;;;;;7372267;19;20098;-67
2024/02/01 10:15:59;;;;;;;29.63;6.10;;;11.80;99.90;;;;;;7369145;19;20086;-69
2024/02/01 10:18:27;;;;;;;29.60;5.90;;;11.70;99.90;;;;;;7368693;19;20894;-68
2024/02/01 10:20:58;;;;;;;22.27;5.10;;;11.70;99.90;;;;;;7372836;19;20014;-68
2024/02/01 10:23:25;;;;;;;27.17;5.63;;;11.80;99.90;;;;;;7371576;19;20078;-68
2024/02/01 10:25:56;;;;;;;29.38;5.45;;;11.40;99.90;;;;;;7370690;19;20384;-67
2024/02/01 10:28:33;;;;;;;23.50;5.40;;;11.40;99.90;;;;;;7369881;19;20964;-67
2024/02/01 10:31:00;;;;;;;30.73;6.10;;;11.20;99.90;;;;;;7371002;19;20018;-67
2024/02/01 10:33:30;;;;;;;23.90;5.28;;;11.00;99.90;;;;;;7372959;19;20776;-67
2024/02/01 10:35:59;;;;;;;24.05;6.18;;;11.00;99.90;;;;;;7368440;19;20496;-67
2024/02/01 10:38:27;;;;;;;24.48;6.05;;;11.00;99.90;;;;;;7368285;19;20623;-67
2024/02/01 10:41:01;;;;;;;23.88;6.78;;;11.70;99.90;;;;;;7370961;19;20562;-67
2024/02/01 10:43:28;;;;;;;23.45;5.07;;;11.40;99.90;;;;;;7372095;19;20027;-67
2024/02/01 10:46:06;;;;;;;28.83;5.40;;;11.80;99.90;;;;;;7370370;19;20078;-67
2024/02/01 10:48:50;;;;;;;21.88;5.93;;;12.00;99.90;;;;;;7368850;19;20018;-67
2024/02/01 10:51:17;;;;;;;25.98;5.78;;;12.40;99.90;;;;;;7371551;19;20031;-67
2024/02/01 10:53:46;;;;;;;24.05;5.70;;;12.60;99.90;;;;;;7369991;19;20015;-68
2024/02/01 10:56:16;;;;;;;27.75;6.28;;;11.80;99.90;;;;;;7368955;19;20050;-67
2024/02/01 10:58:51;;;;;;;24.55;5.82;;;11.40;99.90;;;;;;7365931;19;20082;-67
2024/02/01 11:01:26;;;;;;;19.45;4.95;;;11.20;99.90;;;;;;7370229;19;20022;-67
2024/02/01 11:03:56;;;;;;;22.35;5.40;;;11.30;99.90;;;;;;7369925;19;20022;-67
2024/02/01 11:06:27;;;;;;;25.35;5.22;;;11.30;99.90;;;;;;7368460;19;20792;-67
2024/02/01 11:08:56;;;;;;;20.75;6.05;;;11.10;99.90;;;;;;7366633;19;20022;-67
2024/02/01 11:11:30;;;;;;;28.05;6.57;;;11.30;99.90;;;;;;7369551;19;20030;-68
2024/02/01 11:14:09;;;;;;;21.65;5.57;;;11.60;99.90;;;;;;7375670;19;20022;-68
2024/02/01 11:16:40;;;;;;;24.00;4.90;;;11.50;99.90;;;;;;7377212;19;20019;-68
2024/02/01 11:19:11;;;;;;;25.65;5.72;;;11.50;99.90;;;;;;7373438;19;20032;-67
2024/02/01 11:21:48;;;;;;;;;;;11.60;99.90;;;;;;7374697;19;20015;-67
2024/02/01 11:24:21;;;;;;;32.47;5.95;;;10.90;99.90;;;;;;7380302;19;20358;-67
2024/02/01 11:26:54;;;;;;;30.38;5.40;;;10.70;99.90;;;;;;7374266;19;20020;-67
2024/02/01 11:29:24;;;;;;;22.45;5.18;;;10.50;99.90;;;;;;7374195;19;20025;-67
2024/02/01 11:31:55;;;;;;;27.17;6.35;;;10.40;99.90;;;;;;7375527;19;20074;-66
2024/02/01 11:34:26;;;;;;;27.75;5.90;;;10.80;99.90;;;;;;7374830;19;20017;-66
2024/02/01 11:36:54;;;;;;;23.67;5.72;;;10.80;99.90;;;;;;7375665;19;20019;-66
2024/02/01 11:39:22;;;;;;;30.83;6.45;;;11.10;99.90;;;;;;7372542;19;20918;-66
2024/02/01 11:41:50;;;;;;;30.85;5.97;;;11.60;99.90;;;;;;7375168;19;20048;-66
2024/02/01 11:44:27;;;;;;;22.05;5.35;;;11.30;99.90;;;;;;7375274;19;20051;-65
2024/02/01 11:46:55;;;;;;;26.17;5.43;;;11.30;99.90;;;;;;7374159;19;20018;-66
2024/02/01 11:49:25;;;;;;;27.27;5.90;;;10.70;99.90;;;;;;7372983;19;20825;-66
2024/02/01 11:52:29;;;;;;;24.08;6.13;;;10.70;99.90;;;;;;7372380;19;20550;-66
2024/02/01 11:54:56;;;;;;;24.55;5.63;;;10.50;99.90;;;;;;7372968;19;20014;-67
2024/02/01 11:57:25;;;;;;;24.08;6.20;;;10.40;99.90;;;;;;7372898;19;20039;-66
2024/02/01 11:59:56;;;;;;;27.15;5.60;;;10.20;99.90;;;;;;7372355;19;20093;-66
2024/02/01 12:02:25;;;;;;;26.00;4.93;;;10.00;99.90;;;;;;7375894;19;20022;-66
2024/02/01 12:04:52;;;;;;;28.77;5.85;;;10.20;99.90;;;;;;7375677;19;20045;-66
2024/02/01 12:07:20;;;;;;;30.73;5.85;;;10.00;99.90;;;;;;7373168;19;20502;-66
2024/02/01 12:09:48;;;;;;;27.67;5.45;;;10.10;99.90;;;;;;7373794;19;20017;-66
2024/02/01 12:12:19;;;;;;;28.48;5.65;;;10.10;99.90;;;;;;7375504;19;20389;-66
2024/02/01 12:14:45;;;;;;;21.92;4.82;;;10.10;99.90;;;;;;7376083;19;20502;-66
2024/02/01 12:17:16;;;;;;;24.25;5.50;;;10.20;99.90;;;;;;7373843;19;20031;-67
2024/02/01 12:19:45;;;;;;;21.02;4.68;;;9.90;99.90;;;;;;7374888;19;20023;-67
2024/02/01 12:22:12;;;;;;;22.08;5.25;;;10.00;99.90;;;;;;7376564;19;20368;-67
2024/02/01 12:24:40;;;;;;;22.02;5.28;;;9.90;99.90;;;;;;7372891;19;20523;-68
2024/02/01 12:27:06;;;;;;;26.70;5.28;;;9.50;99.90;;;;;;7373653;19;20065;-67
2024/02/01 12:29:33;;;;;;;22.48;4.72;;;9.70;99.90;;;;;;7374992;19;20018;-68
2024/02/01 12:31:59;;;;;;;21.17;5.28;;;10.20;99.90;;;;;;7373867;19;20015;-68
2024/02/01 12:34:26;;;;;;;24.90;5.90;;;10.40;99.90;;;;;;7378944;19;20027;-68
2024/02/01 12:36:53;;;;;;;24.67;6.03;;;10.80;99.90;;;;;;7376098;19;20014;-69
2024/02/01 12:39:21;;;;;;;29.15;6.00;;;11.80;99.90;;;;;;7376462;19;20018;-69
2024/02/01 12:41:47;;;;;;;24.00;4.82;;;13.10;99.90;;;;;;7376753;19;20011;-69
2024/02/01 12:44:14;;;;;;;25.38;5.45;;;13.80;99.90;;;;;;7375977;19;20062;-67
2024/02/01 12:46:44;;;;;;;21.20;5.30;;;14.30;99.90;;;;;;7377010;19;20053;-68
2024/02/01 12:49:13;;;;;;;21.98;4.43;;;15.00;99.90;;;;;;7373450;19;20031;-66
2024/02/01 12:51:43;;;;;;;22.50;4.63;;;14.60;99.90;;;;;;7372412;19;20018;-66
2024/02/01 12:54:12;;;;;;;24.65;4.50;;;14.80;99.90;;;;;;7372626;19;20028;-69
2024/02/01 12:56:38;;;;;;;23.02;4.82;;;15.00;99.90;;;;;;7371118;19;20019;-65
2024/02/01 12:59:09;;;;;;;16.42;4.93;;;14.50;99.90;;;;;;7370688;19;20018;-66
2024/02/01 13:01:39;;;;;;;19.30;4.05;;;13.60;99.90;;;;;;7371939;19;20181;-67
2024/02/01 13:04:06;;;;;;;22.73;5.00;;;13.40;99.90;;;;;;7374787;19;20069;-67
2024/02/01 13:06:33;;;;;;;19.88;4.80;;;12.90;99.90;;;;;;7374671;19;20018;-66
2024/02/01 13:09:02;;;;;;;22.95;5.47;;;13.10;99.90;;;;;;7372379;19;20018;-65
2024/02/01 13:11:30;;;;;;;25.60;6.05;;;12.90;99.90;;;;;;7371913;19;20043;-65
2024/02/01 13:14:01;;;;;;;24.05;4.88;;;13.60;99.90;;;;;;7369110;19;20060;-66
2024/02/01 13:16:28;;;;;;;26.08;5.57;;;13.10;99.90;;;;;;7373835;19;20090;-65
2024/02/01 13:18:55;;;;;;;24.00;5.22;;;12.60;99.90;;;;;;7366922;19;20014;-65
2024/02/01 13:21:22;;;;;;;19.88;4.22;;;12.10;99.90;;;;;;7376714;19;20018;-65
2024/02/01 13:23:48;;;;;;;23.80;5.07;;;11.50;99.90;;;;;;7375383;19;20073;-65
2024/02/01 13:26:15;;;;;;;19.48;5.30;;;11.50;99.90;;;;;;7372997;19;20824;-66
2024/02/01 13:28:41;;;;;;;21.80;5.00;;;11.10;99.90;;;;;;7370807;19;20760;-66
2024/02/01 13:31:07;;;;;;;22.52;4.90;;;11.20;99.90;;;;;;7373405;19;20014;-66
2024/02/01 13:33:37;;;;;;;19.33;4.95;;;11.80;99.90;;;;;;7370965;19;20582;-66